John M Carras — SVBK5 — position and weather

sailwx.info

Track history (hours):
 
Tides and Currents Weather Stations Pressure Air Temp Water Temp Dewpoint Dewpoint Depression Visibility Wind Speed Wind Dir Waves Ship Positions

John M Carras

Last reported at 2015-Jan-28 21:10 UTC. Time now 2015-Jan-28 22:15 UTC.
Position S 34°04' E 114°52'.

Length 229 m; draft 7.2 m.

Type: Cargo ship. MMSI: 241150000.

Date/timePositionNaut miles runAvg speedWind from/ knotsBaromVisibWave heightAir tempDewpointWater temp
2015-Jan-28 21:10S 34°04' E 114°52'812.5
2015-Jan-28 20:33S 33°56' E 114°51'3811.9
2015-Jan-28 17:23S 33°18' E 114°52'1011.8
2015-Jan-28 16:33S 33°09' E 114°54'1212.0
2015-Jan-28 15:33S 32°57' E 114°59'1212.4
2015-Jan-28 14:33S 32°46' E 115°03'1212.4
2015-Jan-28 13:33S 32°34' E 115°08'1212.0
2015-Jan-28 12:33S 32°22' E 115°12'1212.5
2015-Jan-28 11:34S 32°11' E 115°17'1312.5
2015-Jan-28 10:33S 31°59' E 115°24'1211.8
2015-Jan-28 09:33S 31°58' E 115°38'6 5.6
2015-Jan-28 08:33S 32°03' E 115°41'0 0.1
2015-Jan-28 07:33S 32°03' E 115°41'0 0.0
2015-Jan-28 06:33S 32°03' E 115°41'0 0.0
2015-Jan-28 05:33S 32°03' E 115°41'0 0.1
2015-Jan-28 04:33S 32°03' E 115°41'0 0.2
2015-Jan-28 03:33S 32°03' E 115°41'0 0.1
2015-Jan-28 02:33S 32°03' E 115°40'0 0.1
2015-Jan-28 01:33S 32°03' E 115°40'0 0.1
2015-Jan-28 00:33S 32°03' E 115°40'0 0.1
2015-Jan-27 23:33S 32°03' E 115°40'0 0.1
2015-Jan-27 22:33S 32°03' E 115°40'0 0.0
2015-Jan-27 21:33S 32°03' E 115°40'0 0.1
2015-Jan-27 20:33S 32°03' E 115°40'0 0.0
2015-Jan-27 19:33S 32°03' E 115°40'0 0.0
2015-Jan-27 18:33S 32°03' E 115°40'0 0.1
2015-Jan-27 17:33S 32°03' E 115°40'0 0.1
2015-Jan-27 16:33S 32°03' E 115°40'0 0.0
2015-Jan-27 15:33S 32°03' E 115°40'0 0.1
2015-Jan-27 14:33S 32°03' E 115°40'0 0.0
2015-Jan-27 13:33S 32°03' E 115°40'0 0.0
2015-Jan-27 12:33S 32°03' E 115°40'0 0.3
2015-Jan-27 11:33S 32°02' E 115°41'3 3.3
2015-Jan-27 10:33S 31°59' E 115°40'9 9.2
2015-Jan-27 09:33S 31°52' E 115°32'1312.7
2015-Jan-27 08:33S 31°43' E 115°22'21712.1
2015-Jan-26 14:33S 28°39' E 113°08'7 7.5
2015-Jan-26 13:33S 28°33' E 113°03'8 8.3
2015-Jan-26 12:33S 28°26' E 112°58'1110.6
2015-Jan-26 11:33S 28°17' E 112°52'1110.7
2015-Jan-26 10:33S 28°08' E 112°45'21210.1
2015-Jan-25 13:33S 25°09' E 110°38'10 9.5
2015-Jan-25 12:30S 25°01' E 110°32'12 9.5
2015-Jan-25 11:12S 24°50' E 110°25'  
Track history (hours):
 
Tides and Currents Weather Stations Pressure Air Temp Water Temp Dewpoint Dewpoint Depression Visibility Wind Speed Wind Dir Waves Ship Positions

John M Carras

Last reported at 2015-Jan-28 21:10 UTC. Time now 2015-Jan-28 22:15 UTC.
Position S 34°04' E 114°52'.

Length 229 m; draft 7.2 m.

Type: Cargo ship. MMSI: 241150000.

Date/timePositionNaut miles runAvg speedWind from/ knotsBaromVisibWave heightAir tempDewpointWater temp
2015-Jan-28 21:10S 34°04' E 114°52'812.5
2015-Jan-28 20:33S 33°56' E 114°51'3811.9
2015-Jan-28 17:23S 33°18' E 114°52'1011.8
2015-Jan-28 16:33S 33°09' E 114°54'1212.0
2015-Jan-28 15:33S 32°57' E 114°59'1212.4
2015-Jan-28 14:33S 32°46' E 115°03'1212.4
2015-Jan-28 13:33S 32°34' E 115°08'1212.0
2015-Jan-28 12:33S 32°22' E 115°12'1212.5
2015-Jan-28 11:34S 32°11' E 115°17'1312.5
2015-Jan-28 10:33S 31°59' E 115°24'1211.8
2015-Jan-28 09:33S 31°58' E 115°38'6 5.6
2015-Jan-28 08:33S 32°03' E 115°41'0 0.1
2015-Jan-28 07:33S 32°03' E 115°41'0 0.0
2015-Jan-28 06:33S 32°03' E 115°41'0 0.0
2015-Jan-28 05:33S 32°03' E 115°41'0 0.1
2015-Jan-28 04:33S 32°03' E 115°41'0 0.2
2015-Jan-28 03:33S 32°03' E 115°41'0 0.1
2015-Jan-28 02:33S 32°03' E 115°40'0 0.1
2015-Jan-28 01:33S 32°03' E 115°40'0 0.1
2015-Jan-28 00:33S 32°03' E 115°40'0 0.1
2015-Jan-27 23:33S 32°03' E 115°40'0 0.1
2015-Jan-27 22:33S 32°03' E 115°40'0 0.0
2015-Jan-27 21:33S 32°03' E 115°40'0 0.1
2015-Jan-27 20:33S 32°03' E 115°40'0 0.0
2015-Jan-27 19:33S 32°03' E 115°40'0 0.0
2015-Jan-27 18:33S 32°03' E 115°40'0 0.1
2015-Jan-27 17:33S 32°03' E 115°40'0 0.1
2015-Jan-27 16:33S 32°03' E 115°40'0 0.0
2015-Jan-27 15:33S 32°03' E 115°40'0 0.1
2015-Jan-27 14:33S 32°03' E 115°40'0 0.0
2015-Jan-27 13:33S 32°03' E 115°40'0 0.0
2015-Jan-27 12:33S 32°03' E 115°40'0 0.3
2015-Jan-27 11:33S 32°02' E 115°41'3 3.3
2015-Jan-27 10:33S 31°59' E 115°40'9 9.2
2015-Jan-27 09:33S 31°52' E 115°32'1312.7
2015-Jan-27 08:33S 31°43' E 115°22'21712.1
2015-Jan-26 14:33S 28°39' E 113°08'7 7.5
2015-Jan-26 13:33S 28°33' E 113°03'8 8.3
2015-Jan-26 12:33S 28°26' E 112°58'1110.6
2015-Jan-26 11:33S 28°17' E 112°52'1110.7
2015-Jan-26 10:33S 28°08' E 112°45'21210.1
2015-Jan-25 13:33S 25°09' E 110°38'10 9.5
2015-Jan-25 12:30S 25°01' E 110°32'12 9.5
2015-Jan-25 11:12S 24°50' E 110°25'  

Dump ship's entire track history